Time;durP1;ratioP1;P1;durP2;ratioP2;P2;SDS_P1;SDS_P2;PMS_P1;PMS_P2;Temp;Humidity;BMP_temperature;BMP_pressure;BME280_temperature;BME280_humidity;BME280_pressure;Samples;Min_cycle;Max_cycle;Signal;HPM_P1;HPM_P2
2023/10/19 00:01:53;;;;;;;14.38;6.15;;;;;;;;;;5115083;28;20046;-69
2023/10/19 00:04:57;;;;;;;15.63;6.70;;;19.10;99.90;;;;;;5114740;28;20043;-69
2023/10/19 00:08:14;;;;;;;12.02;5.90;;;19.60;99.90;;;;;;5114792;28;20042;-70
2023/10/19 00:11:27;;;;;;;14.20;6.57;;;19.70;99.90;;;;;;5114894;28;20051;-70
2023/10/19 00:14:32;;;;;;;13.45;6.82;;;;;;;;;;5114981;28;20035;-69
2023/10/19 00:17:38;;;;;;;12.07;6.80;;;19.70;99.90;;;;;;5114750;28;20385;-69
2023/10/19 00:23:56;;;;;;;14.23;7.43;;;19.80;99.90;;;;;;5114369;28;20043;-70
2023/10/19 00:27:10;;;;;;;10.00;6.03;;;;;;;;;;5114772;28;20646;-70
2023/10/19 00:30:18;;;;;;;11.05;6.32;;;18.50;99.90;;;;;;5114443;28;20035;-70
2023/10/19 00:33:28;;;;;;;10.38;5.90;;;;;;;;;;5114436;28;20058;-70
2023/10/19 00:36:33;;;;;;;15.30;7.47;;;20.80;99.90;;;;;;5114510;28;20507;-70
2023/10/19 00:39:53;;;;;;;10.60;5.75;;;;;;;;;;5113160;28;20521;-70
2023/10/19 00:42:57;;;;;;;13.70;6.90;;;;;;;;;;5113459;28;20032;-70
2023/10/19 00:46:03;;;;;;;17.83;6.00;;;18.30;99.90;;;;;;5114170;28;20054;-70
2023/10/19 00:49:09;;;;;;;15.70;6.90;;;19.50;99.90;;;;;;5114195;28;20034;-70
2023/10/19 00:52:23;;;;;;;15.40;6.65;;;19.90;99.90;;;;;;5113823;28;20038;-70
2023/10/19 00:55:28;;;;;;;13.50;6.55;;;19.40;99.90;;;;;;5113922;28;20042;-70
2023/10/19 00:58:36;;;;;;;14.95;6.95;;;17.50;99.90;;;;;;5114011;28;20074;-70
2023/10/19 01:01:45;;;;;;;14.18;6.75;;;19.50;99.90;;;;;;5113968;28;20060;-70
2023/10/19 01:04:55;;;;;;;17.63;7.50;;;19.10;99.90;;;;;;5112159;28;20506;-70
2023/10/19 01:08:02;;;;;;;19.57;8.40;;;;;;;;;;5113656;28;20046;-70
2023/10/19 01:11:11;;;;;;;20.45;7.47;;;19.60;99.90;;;;;;5112683;28;20050;-70
2023/10/19 01:14:22;;;;;;;17.88;7.55;;;19.50;99.90;;;;;;5113559;28;20047;-70
2023/10/19 01:17:26;;;;;;;;;;;19.60;99.90;;;;;;5114147;28;20038;-70
2023/10/19 01:23:39;;;;;;;17.52;8.25;;;;;;;;;;5113292;28;20047;-70
2023/10/19 01:26:46;;;;;;;14.95;8.52;;;;;;;;;;5112505;28;20503;-70
2023/10/19 01:29:52;;;;;;;15.55;8.82;;;;;;;;;;5112668;28;20046;-70
2023/10/19 01:32:57;;;;;;;15.82;7.55;;;20.20;99.90;;;;;;5112386;28;20391;-70
2023/10/19 01:39:45;;;;;;;17.65;8.38;;;;;;;;;;5071694;28;20048;-69
2023/10/19 01:42:49;;;;;;;16.20;7.60;;;;;;;;;;5112956;28;20019;-70
2023/10/19 01:45:56;;;;;;;14.73;8.05;;;;;;;;;;5112027;28;20418;-70
2023/10/19 01:49:02;;;;;;;15.57;7.47;;;19.00;99.90;;;;;;5112800;28;20034;-70
2023/10/19 01:52:06;;;;;;;15.65;7.05;;;;;;;;;;5112705;28;20399;-70
2023/10/19 01:55:12;;;;;;;15.32;7.78;;;;;;;;;;5112693;28;20032;-70
2023/10/19 01:58:16;;;;;;;15.52;8.15;;;;;;;;;;5112739;28;20384;-70
2023/10/19 02:01:28;;;;;;;21.17;8.45;;;;;;;;;;5111753;28;20043;-70
2023/10/19 02:04:35;;;;;;;15.57;7.57;;;19.00;99.90;;;;;;5112556;28;20056;-70
2023/10/19 02:07:39;;;;;;;15.88;7.30;;;;;;;;;;5111917;28;20042;-70
2023/10/19 02:10:48;;;;;;;17.38;8.10;;;18.80;99.90;;;;;;5112232;28;20138;-70
2023/10/19 02:13:54;;;;;;;16.35;7.60;;;18.70;99.90;;;;;;5111774;28;20047;-70
2023/10/19 02:17:01;;;;;;;18.20;9.10;;;18.80;99.90;;;;;;5110838;28;20398;-69
2023/10/19 02:20:12;;;;;;;14.82;7.10;;;18.70;99.90;;;;;;5112137;28;20055;-70
2023/10/19 02:23:16;;;;;;;14.48;8.60;;;;;;;;;;5112128;28;20058;-70
2023/10/19 02:26:22;;;;;;;23.73;10.45;;;;;;;;;;5111470;28;20043;-70
2023/10/19 02:29:27;;;;;;;18.55;8.25;;;;;;;;;;5112040;28;20395;-70
2023/10/19 02:32:33;;;;;;;14.35;7.97;;;;;;;;;;5111531;28;20046;-70
2023/10/19 02:35:37;;;;;;;16.98;8.32;;;;;;;;;;5112036;28;20368;-69
2023/10/19 02:38:43;;;;;;;13.95;8.20;;;;;;;;;;5111387;28;20037;-70
2023/10/19 02:41:48;;;;;;;16.25;8.77;;;18.50;99.90;;;;;;5111782;28;20043;-69
2023/10/19 02:44:52;;;;;;;15.65;8.45;;;;;;;;;;5110854;28;20038;-69
2023/10/19 02:47:58;;;;;;;14.98;7.70;;;18.40;99.90;;;;;;5111668;28;20035;-70
2023/10/19 02:51:08;;;;;;;15.63;7.80;;;;;;;;;;5110717;28;20038;-69
2023/10/19 02:54:20;;;;;;;13.50;7.80;;;19.10;99.90;;;;;;5112024;28;20047;-69
2023/10/19 02:57:24;;;;;;;21.15;7.93;;;;;;;;;;5110974;28;20046;-70
2023/10/19 03:00:33;;;;;;;11.73;7.30;;;;;;;;;;5110642;28;20506;-70
2023/10/19 03:03:37;;;;;;;14.57;7.07;;;;;;;;;;5111558;28;20032;-70
2023/10/19 03:06:43;;;;;;;13.65;6.57;;;;;;;;;;5111585;28;20043;-70
2023/10/19 03:09:54;;;;;;;11.90;6.13;;;;;;;;;;5110735;28;20036;-69
2023/10/19 03:12:58;;;;;;;14.57;5.77;;;;;;;;;;5111821;28;20040;-70
2023/10/19 03:16:07;;;;;;;12.90;5.60;;;;;;;;;;5111704;28;20050;-70
2023/10/19 03:19:14;;;;;;;9.55;5.60;;;;;;;;;;5111431;28;20051;-70
2023/10/19 03:22:19;;;;;;;13.85;5.35;;;;;;;;;;5111480;28;20031;-69
2023/10/19 03:28:46;;;;;;;14.95;5.40;;;;;;;;;;5114730;28;20027;-69
2023/10/19 03:31:50;;;;;;;16.33;6.03;;;;;;;;;;5115391;28;20047;-69
2023/10/19 03:34:57;;;;;;;10.20;5.63;;;;;;;;;;5114663;28;20039;-70
2023/10/19 03:38:07;;;;;;;10.10;5.32;;;;;;;;;;5114529;28;20399;-69
2023/10/19 03:41:12;;;;;;;14.60;6.10;;;;;;;;;;5114492;28;20059;-69
2023/10/19 03:44:24;;;;;;;11.85;5.75;;;;;;;;;;5115430;28;20035;-70
2023/10/19 03:47:34;;;;;;;13.60;7.15;;;;;;;;;;5114716;28;20043;-70
2023/10/19 03:50:42;;;;;;;12.45;7.10;;;;;;;;;;5114315;28;20394;-70
2023/10/19 03:53:54;;;;;;;14.10;7.10;;;;;;;;;;5114607;28;20046;-70
2023/10/19 03:57:03;;;;;;;17.58;7.00;;;;;;;;;;5114051;28;20055;-69
2023/10/19 04:00:16;;;;;;;14.40;7.60;;;18.40;99.90;;;;;;5113999;28;20048;-70
2023/10/19 04:03:24;;;;;;;17.63;6.70;;;;;;;;;;5113808;28;20078;-70
2023/10/19 04:06:28;;;;;;;14.05;7.50;;;;;;;;;;5115183;28;20045;-70
2023/10/19 04:09:33;;;;;;;16.52;7.63;;;;;;;;;;5114852;28;20032;-70
2023/10/19 04:12:43;;;;;;;17.08;7.55;;;18.40;99.90;;;;;;5114651;28;20039;-70
2023/10/19 04:15:49;;;;;;;15.98;7.05;;;;;;;;;;5114847;28;20051;-70
2023/10/19 04:18:54;;;;;;;17.02;8.65;;;;;;;;;;5114556;28;20602;-70
2023/10/19 04:21:58;;;;;;;15.93;8.13;;;;;;;;;;5113609;28;20175;-70
2023/10/19 04:25:06;;;;;;;18.35;7.55;;;;;;;;;;5114722;28;20042;-70
2023/10/19 04:28:10;;;;;;;16.20;7.30;;;;;;;;;;5114786;28;20043;-69
2023/10/19 04:31:14;;;;;;;20.27;7.57;;;;;;;;;;5114532;28;20043;-70
2023/10/19 04:34:21;;;;;;;20.70;7.90;;;;;;;;;;5114580;28;20031;-70
2023/10/19 04:37:25;;;;;;;13.93;7.07;;;;;;;;;;5114340;28;20036;-70
2023/10/19 04:40:30;;;;;;;12.52;6.93;;;;;;;;;;5113705;28;20048;-70
2023/10/19 04:43:36;;;;;;;15.18;7.30;;;18.30;99.90;;;;;;5113999;28;20031;-69
2023/10/19 04:46:41;;;;;;;18.70;7.82;;;;;;;;;;5114110;28;20046;-68
2023/10/19 04:49:45;;;;;;;21.23;7.05;;;;;;;;;;5114204;28;20507;-69
2023/10/19 04:52:49;;;;;;;16.95;6.82;;;;;;;;;;5113963;28;20024;-69
2023/10/19 04:55:54;;;;;;;10.52;6.50;;;;;;;;;;5114220;28;20040;-69
2023/10/19 04:58:58;;;;;;;18.50;6.40;;;;;;;;;;5113914;28;20408;-69
2023/10/19 05:02:03;;;;;;;12.88;6.50;;;;;;;;;;5113985;28;20047;-69
2023/10/19 05:05:07;;;;;;;15.70;6.88;;;;;;;;;;5113517;28;20046;-69
2023/10/19 05:08:11;;;;;;;9.45;5.40;;;18.40;99.90;;;;;;5113779;28;20044;-69
2023/10/19 05:11:16;;;;;;;18.33;6.55;;;;;;;;;;5113416;28;20043;-69
2023/10/19 05:14:20;;;;;;;19.50;6.28;;;;;;;;;;5113278;28;20031;-69
2023/10/19 05:17:24;;;;;;;21.27;6.10;;;;;;;;;;5113364;28;20031;-70
2023/10/19 05:20:29;;;;;;;13.00;6.55;;;;;;;;;;5113121;28;20071;-69
2023/10/19 05:23:33;;;;;;;21.40;6.25;;;;;;;;;;5112715;28;20043;-69
2023/10/19 05:26:37;;;;;;;21.92;6.38;;;;;;;;;;5113317;28;20059;-69
2023/10/19 05:29:42;;;;;;;27.98;7.82;;;;;;;;;;5113099;28;20032;-64
2023/10/19 05:32:46;;;;;;;23.45;7.90;;;;;;;;;;5112846;28;20400;-66
2023/10/19 05:35:51;;;;;;;26.00;7.43;;;18.30;99.90;;;;;;5112896;28;20043;-66
2023/10/19 05:38:55;;;;;;;25.25;8.98;;;;;;;;;;5112733;28;20069;-66
2023/10/19 05:42:18;;;;;;;30.02;9.60;;;;;;;;;;5113072;28;20056;-65
2023/10/19 05:45:22;;;;;;;18.25;7.90;;;;;;;;;;5112524;28;20529;-65
2023/10/19 05:48:27;;;;;;;23.75;7.78;;;;;;;;;;5112636;28;20032;-65
2023/10/19 05:51:31;;;;;;;30.65;8.30;;;;;;;;;;5112463;28;20050;-64
2023/10/19 05:54:37;;;;;;;27.35;7.90;;;;;;;;;;5112244;28;20042;-66
2023/10/19 05:57:41;;;;;;;22.15;7.72;;;;;;;;;;5112675;28;20572;-66
2023/10/19 06:00:46;;;;;;;23.38;8.02;;;;;;;;;;5112293;28;20062;-66
2023/10/19 06:03:51;;;;;;;38.78;9.27;;;19.20;99.90;;;;;;5112172;28;20039;-66
2023/10/19 06:06:56;;;;;;;25.13;8.18;;;;;;;;;;5112532;28;20042;-66
2023/10/19 06:10:04;;;;;;;26.13;9.40;;;;;;;;;;5112046;28;20043;-66
2023/10/19 06:13:11;;;;;;;26.50;8.55;;;;;;;;;;5111865;28;20054;-65
2023/10/19 06:16:16;;;;;;;26.55;8.98;;;;;;;;;;5111870;28;20054;-66
2023/10/19 06:19:20;;;;;;;26.95;9.00;;;19.40;99.30;;;;;;5111913;28;20039;-66
2023/10/19 06:22:24;;;;;;;26.13;8.50;;;;;;;;;;5111406;28;20058;-68
2023/10/19 06:25:28;;;;;;;29.15;10.20;;;21.90;99.30;;;;;;5111890;28;20043;-67
2023/10/19 06:28:38;;;;;;;26.05;9.73;;;19.80;98.60;;;;;;5112005;28;20043;-68
2023/10/19 06:31:43;;;;;;;21.13;8.43;;;20.60;98.40;;;;;;5111749;28;20387;-69
2023/10/19 06:34:47;;;;;;;25.60;9.45;;;20.70;98.40;;;;;;5111724;28;20046;-72
2023/10/19 06:37:54;;;;;;;29.17;11.38;;;22.00;98.50;;;;;;5110947;28;20047;-71
2023/10/19 06:41:11;;;;;;;33.72;12.98;;;20.40;97.70;;;;;;5109407;28;20054;-65
2023/10/19 06:44:16;;;;;;;30.42;12.25;;;21.00;98.10;;;;;;5110081;28;20476;-69
2023/10/19 06:47:20;;;;;;;22.00;11.35;;;21.20;97.80;;;;;;5111218;28;20691;-67
2023/10/19 06:50:25;;;;;;;20.25;9.60;;;22.00;97.70;;;;;;5111092;28;20058;-67
2023/10/19 06:53:31;;;;;;;27.38;9.90;;;21.40;97.50;;;;;;5111114;28;20051;-68
2023/10/19 06:56:37;;;;;;;24.15;10.07;;;21.50;97.30;;;;;;5111283;28;20590;-66
2023/10/19 06:59:43;;;;;;;28.08;11.45;;;21.50;97.50;;;;;;5110008;28;20062;-66
2023/10/19 07:02:51;;;;;;;27.92;12.23;;;21.60;97.30;;;;;;5110599;28;20121;-65
2023/10/19 07:05:56;;;;;;;23.85;10.68;;;21.70;97.20;;;;;;5111149;28;20422;-67
2023/10/19 07:09:02;;;;;;;28.92;10.48;;;21.70;96.80;;;;;;5110354;28;20043;-67
2023/10/19 07:12:10;;;;;;;23.50;10.40;;;21.90;96.90;;;;;;5111212;28;20054;-68
2023/10/19 07:15:14;;;;;;;22.95;10.23;;;21.80;96.80;;;;;;5111176;28;20494;-68
2023/10/19 07:18:18;;;;;;;21.10;11.18;;;22.00;97.20;;;;;;5111228;28;20055;-66
2023/10/19 07:21:22;;;;;;;25.38;11.38;;;22.20;96.80;;;;;;5110593;28;20055;-66
2023/10/19 07:24:26;;;;;;;22.77;11.23;;;22.30;96.50;;;;;;5111264;28;20046;-68
2023/10/19 07:27:30;;;;;;;18.15;9.68;;;22.40;96.70;;;;;;5111020;28;20042;-68
2023/10/19 07:30:35;;;;;;;18.25;9.77;;;22.70;96.30;;;;;;5111004;28;20047;-66
2023/10/19 07:33:42;;;;;;;19.27;9.60;;;22.70;96.50;;;;;;5110801;28;20066;-68
2023/10/19 07:36:46;;;;;;;21.42;9.05;;;22.80;96.50;;;;;;5111036;28;20055;-67
2023/10/19 07:39:52;;;;;;;18.88;8.27;;;23.00;96.30;;;;;;5110564;28;20502;-68
2023/10/19 07:42:56;;;;;;;21.08;9.50;;;23.20;96.10;;;;;;5110891;28;20047;-68
2023/10/19 07:46:01;;;;;;;24.40;11.60;;;23.30;95.90;;;;;;5110671;28;20035;-68
2023/10/19 07:49:05;;;;;;;16.95;8.77;;;23.40;95.60;;;;;;5109666;28;20038;-69
2023/10/19 07:52:14;;;;;;;27.50;10.93;;;23.50;95.40;;;;;;5110208;28;20046;-67
2023/10/19 07:55:19;;;;;;;22.25;8.90;;;23.50;94.60;;;;;;5110592;28;20046;-65
2023/10/19 07:58:23;;;;;;;19.90;10.27;;;23.50;94.90;;;;;;5110730;28;20138;-68
2023/10/19 08:01:28;;;;;;;25.33;10.48;;;23.70;94.80;;;;;;5110581;28;20399;-67
2023/10/19 08:04:32;;;;;;;20.10;9.80;;;23.90;95.00;;;;;;5110522;28;20039;-67
2023/10/19 08:07:37;;;;;;;20.55;8.82;;;24.00;94.70;;;;;;5110815;28;20639;-67
2023/10/19 08:10:40;;;;;;;17.27;7.78;;;24.20;94.10;;;;;;5110816;28;20039;-68
2023/10/19 08:13:44;;;;;;;15.70;7.78;;;24.30;94.20;;;;;;5110797;28;20058;-67
2023/10/19 08:16:48;;;;;;;20.75;9.13;;;24.40;94.20;;;;;;5114535;28;20510;-67
2023/10/19 08:19:52;;;;;;;18.80;8.60;;;24.50;94.40;;;;;;5114253;28;20510;-68
2023/10/19 08:22:57;;;;;;;22.38;7.53;;;24.60;94.40;;;;;;5114419;28;20047;-68
2023/10/19 08:26:05;;;;;;;20.73;7.80;;;24.70;94.30;;;;;;5114142;28;20545;-68
2023/10/19 08:29:15;;;;;;;24.42;9.02;;;24.80;94.10;;;;;;5113284;28;20105;-68
2023/10/19 08:32:19;;;;;;;15.82;7.07;;;24.90;93.80;;;;;;5113364;28;20169;-69
2023/10/19 08:35:26;;;;;;;23.35;7.78;;;24.90;93.90;;;;;;5114029;28;20407;-66
2023/10/19 08:38:30;;;;;;;18.73;7.72;;;24.90;93.70;;;;;;5113950;28;20039;-67
2023/10/19 08:41:37;;;;;;;16.02;7.70;;;25.00;93.70;;;;;;5113657;28;20054;-68
2023/10/19 08:44:41;;;;;;;16.52;7.07;;;25.00;94.10;;;;;;5113882;28;20537;-67
2023/10/19 08:47:56;;;;;;;16.92;7.25;;;25.10;94.20;;;;;;5113940;28;20510;-67
2023/10/19 08:51:09;;;;;;;18.20;8.65;;;25.30;94.20;;;;;;5113376;28;20043;-67
2023/10/19 08:54:16;;;;;;;19.20;8.27;;;25.30;94.30;;;;;;5113804;28;20058;-67
2023/10/19 08:57:21;;;;;;;23.60;9.05;;;25.30;94.00;;;;;;5113436;28;20043;-67
2023/10/19 09:00:25;;;;;;;21.23;7.53;;;25.40;94.00;;;;;;5111944;28;20055;-66
2023/10/19 09:03:29;;;;;;;14.05;6.38;;;25.40;93.90;;;;;;5111787;28;20046;-66
2023/10/19 09:06:43;;;;;;;22.17;6.95;;;25.50;93.70;;;;;;5111184;28;20050;-66
2023/10/19 09:09:47;;;;;;;16.15;6.47;;;25.50;93.40;;;;;;5110526;28;20051;-66
2023/10/19 09:13:03;;;;;;;15.18;6.13;;;25.60;93.70;;;;;;5112761;28;20145;-65
2023/10/19 09:16:10;;;;;;;18.90;5.90;;;25.70;93.90;;;;;;5112611;28;20047;-65
2023/10/19 09:19:14;;;;;;;22.83;6.38;;;25.90;93.40;;;;;;5112370;28;20474;-67
2023/10/19 09:22:18;;;;;;;19.85;5.80;;;25.90;93.30;;;;;;5113460;28;20054;-67
2023/10/19 09:25:22;;;;;;;23.30;5.68;;;26.00;93.40;;;;;;5113133;28;20038;-71
2023/10/19 09:28:26;;;;;;;11.93;5.30;;;26.20;93.30;;;;;;5113311;28;20055;-69
2023/10/19 09:31:31;;;;;;;13.65;5.63;;;26.30;92.50;;;;;;5113032;28;20043;-69
2023/10/19 09:34:36;;;;;;;24.67;5.57;;;26.40;92.80;;;;;;5112719;28;20509;-68
2023/10/19 09:37:40;;;;;;;10.70;4.38;;;26.70;92.50;;;;;;5112908;28;20050;-65
2023/10/19 09:40:46;;;;;;;11.65;5.45;;;26.70;92.70;;;;;;5112857;28;20047;-68
2023/10/19 09:43:51;;;;;;;18.48;6.10;;;26.90;91.60;;;;;;5112725;28;20039;-67
2023/10/19 09:46:58;;;;;;;18.83;5.10;;;26.70;91.40;;;;;;5112977;28;20386;-69
2023/10/19 09:50:05;;;;;;;26.67;10.00;;;27.20;91.10;;;;;;5112751;28;20395;-69
2023/10/19 09:53:10;;;;;;;27.30;6.40;;;28.10;91.50;;;;;;5112649;28;20051;-68
2023/10/19 09:56:21;;;;;;;18.13;5.85;;;27.40;91.40;;;;;;5112896;28;20066;-69
2023/10/19 09:59:43;;;;;;;21.98;6.03;;;27.50;91.50;;;;;;5112340;28;20080;-71
2023/10/19 10:02:47;;;;;;;24.27;5.53;;;27.20;91.20;;;;;;5111406;28;20058;-68
2023/10/19 10:05:52;;;;;;;30.70;6.97;;;27.30;91.40;;;;;;5112148;28;20050;-68
2023/10/19 10:09:00;;;;;;;26.90;5.28;;;27.40;91.60;;;;;;5111577;28;20505;-67
2023/10/19 10:12:25;;;;;;;18.13;5.70;;;27.60;91.50;;;;;;5112077;28;20486;-70
2023/10/19 10:15:40;;;;;;;30.58;5.40;;;27.60;90.90;;;;;;5112162;28;20054;-67
2023/10/19 10:18:48;;;;;;;25.77;6.22;;;27.70;91.00;;;;;;5112093;28;20039;-67
2023/10/19 10:22:26;;;;;;;16.80;4.72;;;28.20;90.70;;;;;;5112030;28;20050;-67
2023/10/19 10:25:30;;;;;;;19.23;6.22;;;27.70;90.90;;;;;;5099952;27;20042;-68
2023/10/19 10:28:38;;;;;;;18.25;5.43;;;27.70;91.00;;;;;;5112197;28;20042;-68
2023/10/19 10:31:44;;;;;;;19.73;5.00;;;27.80;91.20;;;;;;5111869;28;20058;-69
2023/10/19 10:34:49;;;;;;;19.25;5.07;;;27.80;91.30;;;;;;5111804;28;20042;-67
2023/10/19 10:37:57;;;;;;;17.08;5.30;;;27.90;91.60;;;;;;5110343;28;20051;-67
2023/10/19 10:41:04;;;;;;;15.85;5.45;;;27.90;91.80;;;;;;5110600;28;20054;-66
2023/10/19 10:44:08;;;;;;;22.17;5.82;;;27.80;91.90;;;;;;5111816;28;20509;-67
2023/10/19 10:47:21;;;;;;;18.50;4.78;;;27.80;91.80;;;;;;5111772;28;20043;-66
2023/10/19 10:50:25;;;;;;;15.02;4.80;;;27.30;91.80;;;;;;5111419;28;20042;-66
2023/10/19 10:53:29;;;;;;;26.52;4.97;;;27.60;91.40;;;;;;5111376;28;20043;-67
2023/10/19 10:56:41;;;;;;;24.40;5.20;;;27.60;91.70;;;;;;5112015;28;20042;-67
2023/10/19 10:59:45;;;;;;;27.10;5.55;;;27.50;91.50;;;;;;5111483;28;20047;-67
2023/10/19 11:03:04;;;;;;;20.25;6.07;;;27.50;91.70;;;;;;5111344;28;20055;-67
2023/10/19 11:06:10;;;;;;;21.33;6.40;;;27.40;91.60;;;;;;5111985;28;20058;-67
2023/10/19 11:09:18;;;;;;;16.45;4.85;;;26.80;91.40;;;;;;5111322;28;20047;-68
2023/10/19 11:12:24;;;;;;;28.20;6.22;;;27.40;91.60;;;;;;5111855;28;20050;-67
2023/10/19 11:15:28;;;;;;;19.92;5.30;;;27.30;91.50;;;;;;5110504;28;20047;-67
2023/10/19 11:18:36;;;;;;;20.08;5.78;;;27.40;91.60;;;;;;5110635;28;20046;-67
2023/10/19 11:21:53;;;;;;;16.77;5.20;;;27.30;91.50;;;;;;5110322;28;20050;-67
2023/10/19 11:25:21;;;;;;;20.38;5.50;;;27.20;90.80;;;;;;5111376;28;20081;-67
2023/10/19 11:28:28;;;;;;;15.85;4.50;;;27.20;91.40;;;;;;5111072;28;20046;-67
2023/10/19 11:31:37;;;;;;;21.98;5.72;;;27.20;91.30;;;;;;5111224;28;20047;-67
2023/10/19 11:34:44;;;;;;;18.27;5.90;;;27.20;91.00;;;;;;5111225;28;20054;-67
2023/10/19 11:37:52;;;;;;;21.48;4.70;;;27.20;91.60;;;;;;5111371;28;20042;-67
2023/10/19 11:40:57;;;;;;;17.55;4.55;;;27.20;91.50;;;;;;5110928;28;20046;-67
2023/10/19 11:44:01;;;;;;;17.63;6.00;;;27.20;91.80;;;;;;5111291;28;20062;-68
2023/10/19 11:47:05;;;;;;;17.00;5.18;;;27.20;91.90;;;;;;5111221;28;20474;-67
2023/10/19 11:50:12;;;;;;;19.20;4.93;;;27.20;91.60;;;;;;5115011;28;20154;-67
2023/10/19 11:53:16;;;;;;;17.60;5.28;;;28.60;92.20;;;;;;5114047;28;20372;-67
2023/10/19 11:56:20;;;;;;;15.30;4.63;;;27.20;91.60;;;;;;5114776;28;20046;-67
2023/10/19 11:59:26;;;;;;;17.10;5.03;;;27.20;90.20;;;;;;5114627;28;20394;-67
2023/10/19 12:02:30;;;;;;;17.90;4.93;;;27.20;90.50;;;;;;5114798;28;20506;-67
2023/10/19 12:05:36;;;;;;;16.30;4.80;;;27.10;89.70;;;;;;5114770;28;20051;-67
2023/10/19 12:08:40;;;;;;;13.48;4.50;;;27.10;88.90;;;;;;5114779;28;20046;-67
2023/10/19 12:11:45;;;;;;;32.10;4.88;;;27.10;89.50;;;;;;5114576;28;20524;-67
2023/10/19 12:14:50;;;;;;;18.23;4.95;;;27.20;90.00;;;;;;5114417;28;20047;-68
2023/10/19 12:17:54;;;;;;;20.15;5.07;;;27.10;90.20;;;;;;5114471;28;20039;-68
2023/10/19 12:21:02;;;;;;;21.35;4.40;;;27.10;90.20;;;;;;5114338;28;20054;-68
2023/10/19 12:24:07;;;;;;;23.92;4.60;;;27.10;90.40;;;;;;5114485;28;20454;-68
2023/10/19 12:27:13;;;;;;;22.50;5.47;;;27.10;90.30;;;;;;5114269;28;20053;-67
2023/10/19 12:30:20;;;;;;;16.88;4.68;;;27.00;90.30;;;;;;5114174;28;20067;-66
2023/10/19 12:33:26;;;;;;;26.30;6.32;;;27.00;90.20;;;;;;5114035;28;20051;-67
2023/10/19 12:36:34;;;;;;;24.20;4.70;;;27.10;90.60;;;;;;5113709;28;20067;-67
2023/10/19 12:39:47;;;;;;;23.17;4.60;;;27.00;89.80;;;;;;5113769;28;20399;-68
2023/10/19 12:42:52;;;;;;;19.27;4.78;;;27.00;90.20;;;;;;5114023;28;20055;-67
2023/10/19 12:45:57;;;;;;;17.38;4.78;;;26.20;90.00;;;;;;5113979;28;20490;-66
2023/10/19 12:49:04;;;;;;;23.90;5.18;;;26.90;90.00;;;;;;5113740;28;20102;-66
2023/10/19 12:52:10;;;;;;;19.02;4.95;;;26.90;90.10;;;;;;5114151;28;20039;-68
2023/10/19 12:55:14;;;;;;;17.63;4.72;;;26.80;88.90;;;;;;5114058;28;20046;-69
2023/10/19 12:58:19;;;;;;;19.27;5.30;;;26.80;89.40;;;;;;5113739;28;20684;-68
2023/10/19 13:01:23;;;;;;;24.45;4.95;;;26.80;89.90;;;;;;5113531;28;20054;-68
2023/10/19 13:04:30;;;;;;;29.35;5.95;;;26.80;90.00;;;;;;5113329;28;20065;-66
2023/10/19 13:07:39;;;;;;;25.95;6.30;;;25.90;88.40;;;;;;5113749;28;20046;-68
2023/10/19 13:10:45;;;;;;;23.85;5.90;;;26.80;89.50;;;;;;5112802;28;20049;-70
2023/10/19 13:13:49;;;;;;;17.88;5.35;;;26.80;89.50;;;;;;5113077;28;20046;-69
2023/10/19 13:16:54;;;;;;;21.50;5.88;;;26.70;90.00;;;;;;5113227;28;20501;-69
2023/10/19 13:20:01;;;;;;;22.80;4.82;;;26.70;90.10;;;;;;5112260;28;20051;-71
2023/10/19 13:23:11;;;;;;;20.23;4.53;;;26.70;89.30;;;;;;5113088;28;20117;-68
2023/10/19 13:26:18;;;;;;;23.60;5.85;;;26.70;88.40;;;;;;5113213;28;20039;-71
2023/10/19 13:29:23;;;;;;;20.58;4.68;;;26.70;89.00;;;;;;5112748;28;20043;-68
2023/10/19 13:32:32;;;;;;;11.68;4.05;;;26.70;87.50;;;;;;5113398;28;20038;-69
2023/10/19 13:35:37;;;;;;;21.48;4.82;;;26.40;88.10;;;;;;5113263;28;20050;-69
2023/10/19 13:38:42;;;;;;;19.52;4.40;;;26.70;88.30;;;;;;5113246;28;20039;-68
2023/10/19 13:41:46;;;;;;;25.33;6.75;;;26.60;88.60;;;;;;5112881;28;20070;-69
2023/10/19 13:44:50;;;;;;;21.30;5.32;;;26.60;88.90;;;;;;5112849;28;20043;-69
2023/10/19 13:47:58;;;;;;;20.17;5.03;;;26.60;88.80;;;;;;5112737;28;20588;-68
2023/10/19 13:51:15;;;;;;;24.25;5.05;;;26.60;88.30;;;;;;5112604;28;20395;-70
2023/10/19 13:54:19;;;;;;;18.83;5.38;;;26.60;88.80;;;;;;5112855;28;20654;-71
2023/10/19 13:57:23;;;;;;;19.83;5.22;;;26.50;88.40;;;;;;5112414;28;20046;-69
2023/10/19 14:00:40;;;;;;;16.98;4.88;;;25.30;88.20;;;;;;5112552;28;20050;-69
2023/10/19 14:03:45;;;;;;;32.70;5.68;;;26.50;89.00;;;;;;5111979;28;20054;-70
2023/10/19 14:06:50;;;;;;;22.67;5.15;;;26.40;88.60;;;;;;5112066;28;20043;-71
2023/10/19 14:09:54;;;;;;;26.90;5.97;;;26.40;89.40;;;;;;5112317;28;20042;-69
2023/10/19 14:12:58;;;;;;;21.20;5.00;;;26.40;89.50;;;;;;5111488;28;20403;-69
2023/10/19 14:16:09;;;;;;;17.75;6.65;;;26.40;89.70;;;;;;5112057;28;20055;-70
2023/10/19 14:19:17;;;;;;;17.33;5.40;;;26.40;89.60;;;;;;5112235;28;20058;-68
2023/10/19 14:22:21;;;;;;;19.98;5.50;;;26.30;89.60;;;;;;5112088;28;20050;-69
2023/10/19 14:25:26;;;;;;;15.35;4.63;;;26.30;89.50;;;;;;5111935;28;20042;-70
2023/10/19 14:28:31;;;;;;;25.63;5.30;;;26.30;89.80;;;;;;5112049;28;20070;-70
2023/10/19 14:31:35;;;;;;;21.30;5.63;;;26.30;89.20;;;;;;5112103;28;20046;-68
2023/10/19 14:34:39;;;;;;;18.90;5.32;;;26.30;89.00;;;;;;5112125;28;20055;-68
2023/10/19 14:37:45;;;;;;;20.75;5.60;;;26.20;89.00;;;;;;5111833;28;20068;-69
2023/10/19 14:40:53;;;;;;;18.35;5.13;;;26.20;88.20;;;;;;5111856;28;20050;-68
2023/10/19 14:43:59;;;;;;;17.85;4.82;;;26.20;88.60;;;;;;5112113;28;20509;-75
2023/10/19 14:47:04;;;;;;;19.30;4.68;;;26.20;88.40;;;;;;5111719;28;20043;-71
2023/10/19 14:50:11;;;;;;;28.08;5.50;;;26.10;88.80;;;;;;5110419;28;20047;-72
2023/10/19 14:53:15;;;;;;;23.02;5.13;;;26.10;89.20;;;;;;5110210;28;20046;-71
2023/10/19 14:56:20;;;;;;;21.20;5.20;;;26.60;90.00;;;;;;5111225;28;20051;-71
2023/10/19 14:59:24;;;;;;;24.20;5.43;;;26.10;89.60;;;;;;5111668;28;20582;-70
2023/10/19 15:02:28;;;;;;;15.95;4.53;;;26.00;90.20;;;;;;5111431;28;20510;-71
2023/10/19 15:05:35;;;;;;;15.85;6.13;;;25.90;90.20;;;;;;5111345;28;20047;-67
2023/10/19 15:08:39;;;;;;;15.15;4.50;;;26.00;91.10;;;;;;5110686;28;20080;-68
2023/10/19 15:11:43;;;;;;;14.15;4.57;;;25.90;91.70;;;;;;5110389;28;20046;-71
2023/10/19 15:14:47;;;;;;;21.92;6.30;;;25.90;91.90;;;;;;5111418;28;20043;-71
2023/10/19 15:17:52;;;;;;;16.95;6.13;;;25.90;93.00;;;;;;5111652;28;20046;-71
2023/10/19 15:20:56;;;;;;;17.55;6.03;;;25.90;93.00;;;;;;5111642;28;20047;-72
2023/10/19 15:24:00;;;;;;;22.98;5.90;;;25.90;93.30;;;;;;5114487;28;20046;-72
2023/10/19 15:27:04;;;;;;;14.45;5.45;;;25.90;93.50;;;;;;5115690;28;20063;-68
2023/10/19 15:30:12;;;;;;;13.52;6.13;;;25.80;93.80;;;;;;5114916;28;20043;-69
2023/10/19 15:33:18;;;;;;;16.77;6.07;;;25.70;93.80;;;;;;5115740;28;20050;-71
2023/10/19 15:36:22;;;;;;;19.27;6.50;;;25.70;93.90;;;;;;5115301;28;20062;-71
2023/10/19 15:39:27;;;;;;;17.48;6.18;;;25.70;93.80;;;;;;5115175;28;20395;-70
2023/10/19 15:42:33;;;;;;;17.30;6.07;;;25.60;93.90;;;;;;5114998;28;20059;-71
2023/10/19 15:45:43;;;;;;;21.65;6.88;;;25.60;93.70;;;;;;5115412;28;20051;-72
2023/10/19 15:48:47;;;;;;;18.10;6.20;;;25.50;92.10;;;;;;5114915;28;20247;-72
2023/10/19 15:51:52;;;;;;;18.90;5.75;;;26.00;92.30;;;;;;5115100;28;20035;-71
2023/10/19 15:54:55;;;;;;;13.70;4.90;;;25.60;92.30;;;;;;5115086;28;20046;-72
2023/10/19 15:57:59;;;;;;;32.95;7.22;;;25.50;92.00;;;;;;5114514;28;20046;-73
2023/10/19 16:01:06;;;;;;;16.75;4.90;;;25.40;91.80;;;;;;5114724;28;20051;-71
2023/10/19 16:04:10;;;;;;;13.52;5.13;;;25.50;92.20;;;;;;5114866;28;20059;-70
2023/10/19 16:07:17;;;;;;;15.05;4.75;;;25.40;92.20;;;;;;5114748;28;20038;-68
2023/10/19 16:10:22;;;;;;;9.73;5.05;;;25.40;92.50;;;;;;5114428;28;20148;-70
2023/10/19 16:13:25;;;;;;;21.25;6.15;;;25.40;92.60;;;;;;5114635;28;20062;-71
2023/10/19 16:16:30;;;;;;;16.02;5.10;;;25.30;92.50;;;;;;5114753;28;20046;-71
2023/10/19 16:19:34;;;;;;;25.23;8.52;;;25.30;92.60;;;;;;5114664;28;20113;-70
2023/10/19 16:22:37;;;;;;;24.10;6.38;;;25.30;92.40;;;;;;5114354;28;20063;-73
2023/10/19 16:25:41;;;;;;;29.70;8.40;;;25.20;92.70;;;;;;5114524;28;20510;-72
2023/10/19 16:28:46;;;;;;;23.13;10.52;;;25.20;93.30;;;;;;5114507;28;20050;-72
2023/10/19 16:31:50;;;;;;;21.55;7.90;;;25.10;93.40;;;;;;5114446;28;20043;-72
2023/10/19 16:34:54;;;;;;;37.42;11.45;;;25.10;93.40;;;;;;5113089;28;20043;-72
2023/10/19 16:37:58;;;;;;;25.17;8.82;;;25.10;93.90;;;;;;5113398;28;20510;-71
2023/10/19 16:41:02;;;;;;;24.30;7.22;;;25.10;94.20;;;;;;5113959;28;20055;-69
2023/10/19 16:44:06;;;;;;;17.48;6.38;;;25.00;94.20;;;;;;5113884;28;20046;-71